Ergebnisse - 13. Küchwaldlauf - 02.04.1995
Urkundendruck ist ab Veranstaltung 1997 möglich! Klick auf Platzierung m/w oder Ak!
Sortiert nach Geschlecht, aufsteigend
Ges m/w Ak Name Vorname mw JG Ak Orig. Verein Zeit
10 km Lauf Strecke
männlich
1 1 1 Petzsch Axel m 1969 M20     SG Adelsberg0:33:24
2 2 2 Neubauer André m 1972 M20     SG Adelsberg0:33:29
3 3 3 Josefcak Lutz m 1966 M20     SG Adelsberg0:33:57
4 4 1 Glaser Andreas m 1958 M35     LB Schwarzenberg 900:35:02
5 5 4 Lösch André m 1971 M20     SG Adelsberg0:35:32
6 6 2 Fritzsche Michael m 1958 M35     Chemnitzer PSV0:36:01
7 7 3 Schulz Rainer m 1956 M35     Chemnitzer PSV0:36:06
8 8 4 Stephan Wieland m 1958 M35     Chemnitzer PSV0:36:13
9 9 5 Harzer Torsten m 1970 M20     LAC Chemnitz0:36:51
10 10 1 Günther Matthias m 1961 M30     SV 1870 Großolbersdor.0:37:02
11 11 1 Uhlig Oliver m 1977 mU20     Chemnitzer PSV0:37:06
12 12 6 Altrogge Dirk m 1969 M20     SG Adelsberg0:37:17
13 13 1 Richter Lothar m 1953 M40     SG Adelsberg0:37:23
14 14 7 Meißner Silvio m 1975 M20     VSG Rodewisch0:37:37
15 15 1 Dietz Ronny m 1978 mU18     SG Adelsberg0:38:17
16 16 2 Gründler Jochen m 1962 M30     SG Adelsberg0:38:17
17 17 8 Esche Mario m 1969 M20     TSG Glauchau0:38:18
18 18 9 Schmiedl Mike m 1971 M20     Chemnitz0:38:18
20 19 3 Schönfeld Frank m 1961 M30     Rennsteiglaufverein / .0:38:26
21 20 2 Bleimeier Uwe m 1979 mU18     SG Adelsberg0:38:29
22 21 2 Weiß Michael m 1951 M40     LAC Chemnitz0:38:30
23 22 3 Krain Gerhard m 1954 M40     LAC Chemnitz0:38:32
24 23 1 Mengel Stefan m 1948 M45     LB Schwarzenberg 900:39:00
25 24 1 Neukirchner Klaus m 1944 M50     SuL Lößnitz0:39:06
26 25 2 Hofmann Achim m 1950 M45     Tanne Thalheim0:39:08
27 26 4 Dominick Stefan m 1953 M40     LB Schwarzenberg 900:39:11
28 27 5 Fritzsche Christian m 1956 M35     SV Zschopau0:39:17
29 28 6 Hüppe Andreas m 1956 M35     SG Adelsberg0:39:24
30 29 3 Kluttig Roland m 1947 M45     SV Motor Hainichen0:39:24
31 30 2 Trapp Bernhard m 1945 M50     VfL Pirna Copitz 070:39:32
32 31 5 Ohrt Harald m 1952 M40     Chemnitzer PSV0:39:35
33 32 10 Uhlmann Hendrik m 1975 M20     SV Zschopau0:39:38
34 33 11 Dinter Ronny m 1975 M20     Chemnitz0:39:41
35 34 2 Krüpfganz Toni m 1976 mU20     Chemnitzer PSV0:39:49
36 35 3 Müller Lars m 1977 mU20     Chemnitzer PSV0:39:57
37 36 3 Endler Werner m 1941 M50     LAC Chemnitz0:39:59
38 37 4 Vieweg Steffen m 1949 M45     LAC Chemnitz0:40:11
39 38 6 Schäfer Edgar m 1955 M40     Laufgruppe Fuldatal0:40:18
40 39 12 Flade Armin m 1967 M20     SV Grün-Weiß Leubsdo.0:40:23
41 40 1 Köhler Harry m 1937 M55     Post SV Chemnitz0:40:44
42 41 1 Wirth Roy m 1980 mU16     SV 1870 Großolbersdor.0:40:48
43 42 7 Helbig Tilo m 1959 M35     Chemnitz0:40:50
44 43 7 Vogel Frank m 1952 M40     SV Zschopau0:40:59
45 44 8 Stempel Frank m 1955 M40     PSV Hohenstein-Ernstth.0:41:05
46 45 8 Vieweg Heiner m 1959 M35     SV Zschopau0:41:08
47 46 2 Fischer Gunter m 1938 M55     ATSV Freiberg0:41:13
48 47 9 Müller Bernd m 1953 M40     LAC Chemnitz0:41:16
49 48 5 Meyer Stefan m 1950 M45     Chemnitzer PSV0:41:18
51 49 4 Bellmann Uwe m 1977 mU20     SG Adelsberg0:41:23
52 50 3 Mühler Thomas m 1979 mU18     TSV Elektronik Gornsdo.0:41:27
53 51 13 Schäfer Heiko m 1971 M20     Chemnitzer PSV0:41:37
54 52 5 Ungethüm Jörg m 1976 mU20     VSG Rodewisch0:41:38
55 53 6 Köhler Jens m 1977 mU20     LG Merseburg0:41:38
56 54 4 Kentner Peter m 1944 M50     Laufgruppe Fuldatal0:42:11
57 55 10 Franke Detlev m 1955 M40     Rennsteiglaufverein0:42:18
58 56 4 Sachse Rico m 1978 mU18     SG Adelsberg0:42:20
59 57 14 Scholz René m 1971 M20     Chemnitz0:42:23
60 58 5 Buschbeck Frank m 1979 mU18     TSV Flöha 18480:42:23
61 59 3 Weidmüller Johannes m 1937 M55     SG Neukirchen / Erzg.0:42:30
62 60 9 Klemm Thomas m 1957 M35     TSV Limbach0:42:35
63 61 4 Knitsch Wolfram m 1965 M30     Post SV Chemnitz0:42:35
64 62 11 Kühn Hans-Jürgen m 1952 M40     SV Mühlbach0:42:51
65 63 7 Hartzendorf Fabian m 1977 mU20     PSV Hohenstein-Ernstth.0:42:59
66 64 15 Bernhardt Falk m 1973 M20     TSV Fortschritt Mittwe.0:43:03
67 65 8 Teller Jan m 1977 mU20     SG Adelsberg0:43:07
69 66 16 Römpler Ingolf m 1967 M20     TV "Vater Jahn" Burgst.0:43:10
70 67 6 Piechotta Bernd m 1946 M45     WSV Grüna0:43:10
71 68 1 Klost Fritz m 1930 M65     SG Adelsberg0:43:11
72 69 5 Vießmann Frank m 1965 M30     LAC Chemnitz0:43:13
74 70 6 Hellinger David m 1978 mU18     SG Adelsberg0:43:17
75 71 7 Wagner Klaus m 1950 M45     LAC Chemnitz0:43:36
76 72 12 Schubert Jörg m 1955 M40     Kanu SV 1928 Flöha0:43:45
77 73 4 Sachunsky Heinz m 1936 M55     LAC Chemnitz0:43:56
79 74 6 Glös Michael m 1965 M30     Burgstädt0:44:20
81 75 8 Schmidt Manfred m 1950 M45     Chemnitzer PSV0:44:31
82 76 9 Wachsmann Jörg m 1946 M45     FSV Mittweida0:44:36
83 77 5 Schubert Wolfgang m 1940 M55     SSV Textima Chemnitz0:44:37
84 78 17 Pabst Sven m 1975 M20     LAC Chemnitz0:44:46
87 79 10 Trochold Heinz m 1948 M45     Mylau0:45:07
88 80 13 Groß Dietmar m 1951 M40     TSV Limbach0:45:18
89 81 7 Fiedler Peer m 1962 M30     SSV Textima Chemnitz0:45:35
90 82 18 Jennert Thomas m 1974 M20     Chemnitz0:45:39
91 83 19 Trampel Sven m 1969 M20     SG Adelsberg0:45:45
92 84 8 Richter Falk m 1964 M30     WSV Mühlenstraße Che.0:45:50
93 85 10 Fiedler Thomas m 1959 M35     Siegmar0:45:55
95 86 5 Weese Horst m 1942 M50     MRRC München0:46:03
96 87 14 Kuhnert Steffen m 1953 M40     USG Chemnitz0:46:07
99 88 20 Langer Falk-Uwe m 1968 M20     Chemnitz0:46:25
100 89 11 Otto Rolf m 1949 M45     Chemnitz0:46:28
101 90 6 Müller Jürgen m 1942 M50     TSV Geyer0:46:38
102 91 12 Claus Rainer m 1949 M45     USG Chemnitz0:46:41
103 92 21 Farnbacher Jörg m 1975 M20     TV "Vater Jahn" Burgst.0:46:53
104 93 6 Zimmer Klaus m 1940 M55     Hohenstein-Ernstthal0:47:17
105 94 2 Claus Eike m 1982 mU16     LAC Chemnitz0:47:18
106 95 7 Eckart Ronald m 1978 mU18     LAC Chemnitz0:47:21
107 96 7 Kreschnak Klaus m 1942 M50     LG Reichenbrand0:47:25
108 97 8 Wunderlich Roman m 1979 mU18     SV Germania Chemnitz0:47:27
109 98 15 Arnold Andreas m 1951 M40     Glauchau0:47:35
110 99 16 Gerstenberger Bernd m 1952 M40     VfL 05 Hohenstein-E.0:47:43
112 100 9 Schädlich Bernd m 1963 M30     Chemnitz0:47:50
113 101 10 Krockenberger Leo-Rol. m 1965 M30     SG Aufbau Chemnitz0:48:27
116 102 17 Engst Lothar m 1954 M40     Chemnitz0:48:38
117 103 8 Pabst Rudolf m 1941 M50     LAC Chemnitz0:48:38
120 104 13 Krauß Roland m 1948 M45     Meeraner SV0:49:21
121 105 9 Göbel Bernd m 1944 M50     SuL Lößnitz0:49:24
122 106 11 Präfke Jörg m 1956 M35     Chemnitzer PSV0:49:35
123 107 12 Schwede Detlef m 1957 M35     Chemnitz0:49:37
125 108 10 Steinbock Bernd m 1944 M50     LG Neukirchen0:49:44
127 109 1 Fiebag Gerhard m 1935 M60     Chemnitz0:49:56
129 110 18 Eckart Bernd m 1955 M40     LAC Chemnitz0:50:04
130 111 11 Harzer Wolfgang m 1941 M50     LAC Chemnitz0:50:07
132 112 7 Riesmeier Horst m 1940 M55     TSV Fortschritt Mittwe.0:50:19
134 113 12 Molle Frank m 1944 M50     SV Medizin0:50:59
135 114 2 Prüfer Fritz m 1926 M65     LAC Chemnitz0:51:11
136 115 14 Merker Gunder m 1947 M45     Post SV Chemnitz0:51:18
137 116 22 Schültke Uwe m 1975 M20     RSV Chemnitz0:51:28
138 117 11 Herold Uwe m 1965 M30     TSV Olympia Plauen0:52:18
142 118 2 Ducke Günter m 1934 M60     LAC Chemnitz0:52:56
144 119 19 Wiedemann Michael m 1952 M40     SuL Lößnitz0:53:00
145 120 13 Fleischer Claus m 1941 M50     Chemnitz0:53:20
146 121 3 Hübsch Eberhard m 1928 M65     Chemnitz0:53:23
147 122 3 Schneider Siegfried m 1932 M60     Chemnitz0:54:01
148 123 23 Tewes Gunar m 1975 M20     Bayreuth0:54:13
149 124 14 Stodolsky Peter m 1941 M50     Laufgruppe Fuldatal0:54:40
150 125 1 Unger Heinz m 1921 M70     SG Adelsberg0:54:45
151 126 4 Müller Horst m 1934 M60     Laufgruppe Fuldatal0:54:57
153 127 5 Köpen Manfred m 1935 M60     TSV Fortschritt Mittwe.0:56:18
155 128 15 Pott Gerhard m 1946 M45     Laufgruppe Fuldatal0:58:14
156 129 3 Christant Paul m 1985 mU16     Union 770:58:27
161 130 1 Bandorf Walter m 1920 M75     Post SV Chemnitz1:12:08
weiblich
19 1 1 Günther Sabine w 1963 W30     SV 1870 Großolbersdor.0:38:22
50 2 1 Zimmer Julia w 1976 wU20     SG Adelsberg0:41:21
68 3 2 Estel Ulrike w 1965 W30     SV Zschopau0:43:09
73 4 1 Wagner / Schulz. Ursula w 1957 W35     LAC Chemnitz0:43:15
78 5 1 Henniger Mercedes w 1980 wU16     ESV Chemnitz0:44:03
80 6 1 Göthel Gisela w 1950 W45     SG Adelsberg0:44:27
85 7 1 Kursawe Anett w 1969 W20     Chemnitz0:44:52
86 8 1 Scioch Patrycja w 1978 wU18     ESV Chemnitz0:44:54
94 9 2 Witthuhn Brigitte w 1946 W45     Laufgruppe Fuldatal0:45:57
97 10 2 Weigel Ursula w 1956 W35     LSV 85 Waldfrieden Thu.0:46:09
98 11 2 Kießling Elke w 1971 W20     LAC Chemnitz0:46:19
111 12 3 Mühler Angelika w 1950 W45     TSV Elektronik Gornsdo.0:47:45
114 13 2 Steinbach Anne w 1980 wU16     SV 1870 Großolbersdor.0:48:31
115 14 3 Dietsch Anja w 1971 W20     SG Adelsberg0:48:36
118 15 1 Vieweg Gerda w 1951 W40     LAC Chemnitz0:48:56
119 16 4 Steinert Jana w 1973 W20     TSV Fortschritt Mittwe.0:49:17
124 17 3 Fritzsche Martina w 1959 W35     USG Chemnitz0:49:41
126 18 2 Müller Monika w 1955 W40     Chemnitzer PSV0:49:46
128 19 4 Jäger Monika w 1949 W45     Laufgruppe Fuldatal0:49:59
131 20 3 Gründler Heike w 1962 W30     SG Adelsberg0:50:08
133 21 4 Burkhardt Kerstin w 1962 W30     Chemnitz0:50:44
139 22 2 Kempe Manuela w 1978 wU18     ESV Chemnitz0:52:21
140 23 3 Teuchner Manja w 1978 wU18     ESV Chemnitz0:52:22
141 24 4 Teuchner Janine w 1978 wU18     ESV Chemnitz0:52:51
143 25 2 Ritzmann Karin w 1977 wU20     Chemnitzer PSV0:52:58
152 26 1 Köppen Gisela w 1940 W55     TSV Fortschritt Mittwe.0:55:09
154 27 5 Unger Peggy w 1975 W20     Post SV Chemnitz0:58:13
157 28 4 Claus Annerose w 1956 W35     Chemnitz0:58:48
158 29 5 Schulze Uta w 1959 W35     Chemnitz0:59:00
159 30 2 Rother Kordula w 1940 W55     Laufgruppe Fuldatal1:05:50
160 31 1 Burbaum Waltraud w 1944 W50     Laufgruppe Fuldatal1:05:52
Orig. - entspricht der vor 1991 jeweils gültigen Altersklasseneinteilungen
Für Korrekturen (z.B. Schreibweise Namen / Berichtigung Jahrgang) dieser Ergebnislisten aus verschiedenen Quellen, bitte eine kurze Mitteilung an
info@kuechwaldlauf.de senden!
Wettkampfauswertung by www.SachseLauf.de